Atwater, CA

6:32 AM PST on February 06, 2016 (GMT -0800)
TheRedwoods | | Change Station
CLOSE
Current Station
Personal Weather Station
Location: Atwater, CA
Elevation: 157 ft
Nearby Weather Stations

Elev 157 ft 37.37 °N, 120.66 °W | Updated 6 seconds ago

Overcast
Overcast
35.8 °F
Feels Like 36 °F
N
0.0
Wind Variable Wind from NNE
Gusts 0.0 mph

Today
High -- | Low -- °F
--% Chance of Precip.
Yesterday
High -- | Low -- °F
Precip. -- in
Pressure 30.41 in
Visibility 0.2 miles
Clouds Mostly Cloudy 100 ft
Overcast 1100 ft
Windchill 36 °F
Dew Point 34 °F
Humidity 93%
Rainfall 0.00 in
Snow Depth Not available.
7:01 AM 5:32 PM
Waning Crescent, 5% visible
METAR KMER 061355Z AUTO 30003KT M1/4SM BKN001 OVC011 02/02 A3041 RMK AO1
Pressure 30.41 in
Visibility 0.2 miles
Clouds Mostly Cloudy 100 ft
Overcast 1100 ft
Windchill 36 °F
Dew Point 34 °F
Humidity 93%
Rainfall 0.00 in
Snow Depth Not available.
7:01 AM 5:32 PM
Waning Crescent, 5% visible
METAR KMER 061355Z AUTO 30003KT M1/4SM BKN001 OVC011 02/02 A3041 RMK AO1

10-Day Weather Forecast

Almanac

Astronomy

Feb. 06, 2016 Rise Set
Actual Time
Civil Twilight
Nautical Twilight
Astronomical Twilight
Moon
Length of Visible Light
Length of Day
Tomorrow will be .
, % of the Moon is Illuminated

Today's Extremes

State Highs State Lows

Community

WunderPhotos

Upload Photos

1,890,983 photos uploaded!

WunderBlog® & News

Nearby

Air Quality

  Air Quality AQ Index Pollutant
Not available.

Snow Depth

Station Depth Elevation

Earthquake Activity

City Distance Mag. Time & Date
Minimum magnitude displayed is 2.5.

Coastal Water Temperatures

Place Temperature

Stations

Nearby Weather Stations

Station Location Temp. Windchill Dew Point Humidity Wind Precip. Elev Updated Type
                   

Watches & Warnings

There are currently no watches in effect.